sensor_id;sensor_type;location;lat;lon;timestamp;pressure;altitude;pressure_sealevel;temperature;humidity
62634;BME280;48704;50.534;6.442;2022-11-20T00:00:05;94968.75;;;1.78;100.00
62634;BME280;48704;50.534;6.442;2022-11-20T00:02:30;94969.00;;;1.96;100.00
62634;BME280;48704;50.534;6.442;2022-11-20T00:04:56;94974.97;;;2.08;100.00
62634;BME280;48704;50.534;6.442;2022-11-20T00:07:21;94970.81;;;2.16;100.00
62634;BME280;48704;50.534;6.442;2022-11-20T00:09:46;94971.22;;;2.27;100.00
62634;BME280;48704;50.534;6.442;2022-11-20T00:12:12;94971.75;;;1.55;100.00
62634;BME280;48704;50.534;6.442;2022-11-20T00:14:37;94976.38;;;1.58;100.00
62634;BME280;48704;50.534;6.442;2022-11-20T00:17:02;94970.69;;;1.65;100.00
62634;BME280;48704;50.534;6.442;2022-11-20T00:19:27;94970.28;;;1.79;100.00
62634;BME280;48704;50.534;6.442;2022-11-20T00:21:53;94974.50;;;1.96;100.00
62634;BME280;48704;50.534;6.442;2022-11-20T00:24:20;94973.66;;;1.71;100.00
62634;BME280;48704;50.534;6.442;2022-11-20T00:26:45;94975.94;;;1.59;100.00
62634;BME280;48704;50.534;6.442;2022-11-20T00:29:11;94970.16;;;1.70;100.00
62634;BME280;48704;50.534;6.442;2022-11-20T00:31:36;94965.03;;;1.43;100.00
62634;BME280;48704;50.534;6.442;2022-11-20T00:34:02;94976.47;;;1.25;100.00
62634;BME280;48704;50.534;6.442;2022-11-20T00:36:28;94968.19;;;1.42;100.00
62634;BME280;48704;50.534;6.442;2022-11-20T00:38:55;94960.50;;;1.37;100.00
62634;BME280;48704;50.534;6.442;2022-11-20T00:41:22;94962.88;;;1.06;100.00
62634;BME280;48704;50.534;6.442;2022-11-20T00:43:48;94964.00;;;1.08;100.00
62634;BME280;48704;50.534;6.442;2022-11-20T00:46:16;94963.44;;;1.13;100.00
62634;BME280;48704;50.534;6.442;2022-11-20T00:48:42;94964.34;;;1.39;100.00
62634;BME280;48704;50.534;6.442;2022-11-20T00:51:08;94962.09;;;1.63;100.00
62634;BME280;48704;50.534;6.442;2022-11-20T00:53:33;94955.75;;;1.66;100.00
62634;BME280;48704;50.534;6.442;2022-11-20T00:56:01;94956.81;;;1.56;100.00
62634;BME280;48704;50.534;6.442;2022-11-20T00:58:32;94956.81;;;1.56;100.00
62634;BME280;48704;50.534;6.442;2022-11-20T01:03:34;94968.38;;;1.63;100.00
62634;BME280;48704;50.534;6.442;2022-11-20T01:06:12;94960.72;;;1.71;100.00
62634;BME280;48704;50.534;6.442;2022-11-20T01:08:38;94957.28;;;1.67;100.00
62634;BME280;48704;50.534;6.442;2022-11-20T01:11:10;94958.66;;;1.46;100.00
62634;BME280;48704;50.534;6.442;2022-11-20T01:13:36;94965.25;;;1.90;100.00
62634;BME280;48704;50.534;6.442;2022-11-20T01:16:16;94959.69;;;1.65;100.00
62634;BME280;48704;50.534;6.442;2022-11-20T01:18:44;94952.94;;;1.82;100.00
62634;BME280;48704;50.534;6.442;2022-11-20T01:21:13;94949.44;;;1.53;100.00
62634;BME280;48704;50.534;6.442;2022-11-20T01:23:40;94957.00;;;1.49;100.00
62634;BME280;48704;50.534;6.442;2022-11-20T01:26:08;94959.41;;;1.76;100.00
62634;BME280;48704;50.534;6.442;2022-11-20T01:28:34;94960.84;;;1.80;100.00
62634;BME280;48704;50.534;6.442;2022-11-20T01:30:59;94950.47;;;2.13;100.00
62634;BME280;48704;50.534;6.442;2022-11-20T01:33:25;94949.91;;;2.31;100.00
62634;BME280;48704;50.534;6.442;2022-11-20T01:35:51;94942.44;;;2.19;100.00
62634;BME280;48704;50.534;6.442;2022-11-20T01:38:17;94946.59;;;1.85;100.00
62634;BME280;48704;50.534;6.442;2022-11-20T01:40:42;94946.97;;;1.71;100.00
62634;BME280;48704;50.534;6.442;2022-11-20T01:43:14;94946.16;;;1.99;100.00
62634;BME280;48704;50.534;6.442;2022-11-20T01:49:15;94957.00;;;1.90;100.00
62634;BME280;48704;50.534;6.442;2022-11-20T01:51:57;94942.09;;;2.04;100.00
62634;BME280;48704;50.534;6.442;2022-11-20T01:54:30;94931.63;;;1.99;100.00
62634;BME280;48704;50.534;6.442;2022-11-20T01:56:59;94939.53;;;1.97;100.00
62634;BME280;48704;50.534;6.442;2022-11-20T01:59:26;94931.19;;;2.00;100.00
62634;BME280;48704;50.534;6.442;2022-11-20T02:01:53;94937.09;;;1.86;100.00
62634;BME280;48704;50.534;6.442;2022-11-20T02:04:18;94939.38;;;1.62;100.00
62634;BME280;48704;50.534;6.442;2022-11-20T02:06:48;94938.59;;;1.62;100.00
62634;BME280;48704;50.534;6.442;2022-11-20T02:09:15;94940.84;;;1.92;100.00
62634;BME280;48704;50.534;6.442;2022-11-20T02:11:40;94939.81;;;1.61;100.00
62634;BME280;48704;50.534;6.442;2022-11-20T02:14:06;94939.31;;;1.79;100.00
62634;BME280;48704;50.534;6.442;2022-11-20T02:16:59;94946.25;;;1.96;100.00
62634;BME280;48704;50.534;6.442;2022-11-20T02:19:27;94942.59;;;1.86;100.00
62634;BME280;48704;50.534;6.442;2022-11-20T02:22:06;94955.78;;;1.91;100.00
62634;BME280;48704;50.534;6.442;2022-11-20T02:24:32;94951.97;;;2.01;100.00
62634;BME280;48704;50.534;6.442;2022-11-20T02:27:09;94948.56;;;2.23;100.00
62634;BME280;48704;50.534;6.442;2022-11-20T02:32:26;94952.41;;;2.00;100.00
62634;BME280;48704;50.534;6.442;2022-11-20T02:34:52;94944.50;;;2.27;100.00
62634;BME280;48704;50.534;6.442;2022-11-20T02:37:18;94939.47;;;2.13;100.00
62634;BME280;48704;50.534;6.442;2022-11-20T02:39:46;94943.66;;;2.18;100.00
62634;BME280;48704;50.534;6.442;2022-11-20T02:42:13;94950.09;;;1.98;100.00
62634;BME280;48704;50.534;6.442;2022-11-20T02:44:38;94941.72;;;1.89;100.00
62634;BME280;48704;50.534;6.442;2022-11-20T02:47:03;94949.31;;;1.98;100.00
62634;BME280;48704;50.534;6.442;2022-11-20T02:49:29;94942.53;;;2.03;100.00
62634;BME280;48704;50.534;6.442;2022-11-20T02:51:54;94939.78;;;2.28;100.00
62634;BME280;48704;50.534;6.442;2022-11-20T02:54:19;94938.69;;;2.25;100.00
62634;BME280;48704;50.534;6.442;2022-11-20T02:56:45;94928.81;;;2.15;100.00
62634;BME280;48704;50.534;6.442;2022-11-20T02:59:10;94936.44;;;1.70;100.00
62634;BME280;48704;50.534;6.442;2022-11-20T03:01:35;94932.94;;;1.94;100.00
62634;BME280;48704;50.534;6.442;2022-11-20T03:04:01;94935.59;;;1.85;100.00
62634;BME280;48704;50.534;6.442;2022-11-20T03:06:26;94927.88;;;1.80;100.00
62634;BME280;48704;50.534;6.442;2022-11-20T03:08:51;94928.97;;;1.70;100.00
62634;BME280;48704;50.534;6.442;2022-11-20T03:11:17;94925.47;;;1.82;100.00
62634;BME280;48704;50.534;6.442;2022-11-20T03:13:42;94914.03;;;1.96;100.00
62634;BME280;48704;50.534;6.442;2022-11-20T03:16:13;94918.53;;;1.78;100.00
62634;BME280;48704;50.534;6.442;2022-11-20T03:18:40;94911.31;;;1.84;100.00
62634;BME280;48704;50.534;6.442;2022-11-20T03:21:06;94915.25;;;1.83;100.00
62634;BME280;48704;50.534;6.442;2022-11-20T03:23:33;94917.34;;;1.37;100.00
62634;BME280;48704;50.534;6.442;2022-11-20T03:26:18;94921.44;;;1.58;100.00
62634;BME280;48704;50.534;6.442;2022-11-20T03:28:52;94913.16;;;1.74;100.00
62634;BME280;48704;50.534;6.442;2022-11-20T03:31:20;94912.38;;;1.86;100.00
62634;BME280;48704;50.534;6.442;2022-11-20T03:33:45;94913.81;;;1.78;100.00
62634;BME280;48704;50.534;6.442;2022-11-20T03:36:12;94915.91;;;1.74;100.00
62634;BME280;48704;50.534;6.442;2022-11-20T03:38:39;94907.00;;;1.70;100.00
62634;BME280;48704;50.534;6.442;2022-11-20T03:41:08;94916.44;;;1.69;100.00
62634;BME280;48704;50.534;6.442;2022-11-20T03:43:33;94912.81;;;1.72;100.00
62634;BME280;48704;50.534;6.442;2022-11-20T03:45:59;94903.47;;;1.70;100.00
62634;BME280;48704;50.534;6.442;2022-11-20T03:48:25;94906.22;;;1.70;100.00
62634;BME280;48704;50.534;6.442;2022-11-20T03:50:51;94894.25;;;1.76;100.00
62634;BME280;48704;50.534;6.442;2022-11-20T03:53:17;94900.50;;;1.64;100.00
62634;BME280;48704;50.534;6.442;2022-11-20T03:55:42;94897.00;;;1.76;100.00
62634;BME280;48704;50.534;6.442;2022-11-20T03:58:08;94895.34;;;1.66;100.00
62634;BME280;48704;50.534;6.442;2022-11-20T04:00:34;94902.56;;;1.60;100.00
62634;BME280;48704;50.534;6.442;2022-11-20T04:03:00;94898.81;;;1.54;100.00
62634;BME280;48704;50.534;6.442;2022-11-20T04:05:26;94899.81;;;1.47;100.00
62634;BME280;48704;50.534;6.442;2022-11-20T04:07:51;94908.63;;;1.67;100.00
62634;BME280;48704;50.534;6.442;2022-11-20T04:10:16;94901.97;;;1.81;100.00
62634;BME280;48704;50.534;6.442;2022-11-20T04:12:42;94894.59;;;1.91;100.00
62634;BME280;48704;50.534;6.442;2022-11-20T04:15:07;94893.81;;;1.90;100.00
62634;BME280;48704;50.534;6.442;2022-11-20T04:17:33;94894.38;;;1.98;100.00
62634;BME280;48704;50.534;6.442;2022-11-20T04:19:58;94897.22;;;1.94;100.00
62634;BME280;48704;50.534;6.442;2022-11-20T04:22:23;94896.03;;;1.95;100.00
62634;BME280;48704;50.534;6.442;2022-11-20T04:24:49;94900.44;;;2.06;100.00
62634;BME280;48704;50.534;6.442;2022-11-20T04:27:14;94902.94;;;2.00;100.00
62634;BME280;48704;50.534;6.442;2022-11-20T04:29:39;94894.69;;;1.87;100.00
62634;BME280;48704;50.534;6.442;2022-11-20T04:32:05;94898.22;;;2.00;100.00
62634;BME280;48704;50.534;6.442;2022-11-20T04:34:30;94904.16;;;1.99;100.00
62634;BME280;48704;50.534;6.442;2022-11-20T04:36:55;94909.22;;;2.00;100.00
62634;BME280;48704;50.534;6.442;2022-11-20T04:39:21;94902.84;;;2.04;100.00
62634;BME280;48704;50.534;6.442;2022-11-20T04:41:46;94894.06;;;2.09;100.00
62634;BME280;48704;50.534;6.442;2022-11-20T04:44:11;94895.59;;;2.10;100.00
62634;BME280;48704;50.534;6.442;2022-11-20T04:46:42;94897.81;;;2.15;100.00
62634;BME280;48704;50.534;6.442;2022-11-20T04:49:07;94903.84;;;2.10;100.00
62634;BME280;48704;50.534;6.442;2022-11-20T04:51:33;94904.63;;;2.10;100.00
62634;BME280;48704;50.534;6.442;2022-11-20T04:53:59;94900.53;;;1.89;100.00
62634;BME280;48704;50.534;6.442;2022-11-20T04:56:25;94894.28;;;2.01;100.00
62634;BME280;48704;50.534;6.442;2022-11-20T04:58:51;94897.66;;;1.80;100.00
62634;BME280;48704;50.534;6.442;2022-11-20T05:01:18;94902.06;;;2.03;100.00
62634;BME280;48704;50.534;6.442;2022-11-20T05:03:44;94897.34;;;2.04;100.00
62634;BME280;48704;50.534;6.442;2022-11-20T05:06:12;94898.22;;;2.00;100.00
62634;BME280;48704;50.534;6.442;2022-11-20T05:08:39;94897.34;;;2.04;100.00
62634;BME280;48704;50.534;6.442;2022-11-20T05:11:10;94894.59;;;2.04;100.00
62634;BME280;48704;50.534;6.442;2022-11-20T05:13:36;94894.16;;;2.05;100.00
62634;BME280;48704;50.534;6.442;2022-11-20T05:16:07;94894.81;;;2.09;100.00
62634;BME280;48704;50.534;6.442;2022-11-20T05:18:34;94901.19;;;2.06;100.00
62634;BME280;48704;50.534;6.442;2022-11-20T05:21:00;94890.56;;;2.21;100.00
62634;BME280;48704;50.534;6.442;2022-11-20T05:23:26;94899.69;;;2.18;100.00
62634;BME280;48704;50.534;6.442;2022-11-20T05:25:52;94892.84;;;2.22;100.00
62634;BME280;48704;50.534;6.442;2022-11-20T05:28:18;94900.00;;;2.20;100.00
62634;BME280;48704;50.534;6.442;2022-11-20T05:30:43;94901.09;;;1.84;100.00
62634;BME280;48704;50.534;6.442;2022-11-20T05:33:09;94899.09;;;1.97;100.00
62634;BME280;48704;50.534;6.442;2022-11-20T05:35:34;94897.69;;;2.06;100.00
62634;BME280;48704;50.534;6.442;2022-11-20T05:37:59;94902.50;;;2.01;100.00
62634;BME280;48704;50.534;6.442;2022-11-20T05:40:24;94890.88;;;1.85;100.00
62634;BME280;48704;50.534;6.442;2022-11-20T05:42:50;94894.59;;;1.78;100.00
62634;BME280;48704;50.534;6.442;2022-11-20T05:45:15;94895.34;;;1.91;100.00
62634;BME280;48704;50.534;6.442;2022-11-20T05:47:40;94893.81;;;1.90;100.00
62634;BME280;48704;50.534;6.442;2022-11-20T05:50:06;94896.22;;;1.88;100.00
62634;BME280;48704;50.534;6.442;2022-11-20T05:52:31;94894.94;;;1.80;100.00
62634;BME280;48704;50.534;6.442;2022-11-20T05:54:56;94895.13;;;1.73;100.00
62634;BME280;48704;50.534;6.442;2022-11-20T05:57:22;94891.94;;;1.75;100.00
62634;BME280;48704;50.534;6.442;2022-11-20T05:59:47;94887.88;;;1.79;100.00
62634;BME280;48704;50.534;6.442;2022-11-20T06:02:12;94902.72;;;1.82;100.00
62634;BME280;48704;50.534;6.442;2022-11-20T06:04:38;94886.78;;;1.77;100.00
62634;BME280;48704;50.534;6.442;2022-11-20T06:07:05;94896.47;;;1.81;100.00
62634;BME280;48704;50.534;6.442;2022-11-20T06:09:30;94894.16;;;1.80;100.00
62634;BME280;48704;50.534;6.442;2022-11-20T06:11:56;94896.81;;;1.83;100.00
62634;BME280;48704;50.534;6.442;2022-11-20T06:14:21;94894.59;;;1.78;100.00
62634;BME280;48704;50.534;6.442;2022-11-20T06:16:46;94899.84;;;1.73;100.00
62634;BME280;48704;50.534;6.442;2022-11-20T06:19:12;94893.16;;;1.74;100.00
62634;BME280;48704;50.534;6.442;2022-11-20T06:21:37;94895.09;;;1.60;100.00
62634;BME280;48704;50.534;6.442;2022-11-20T06:24:03;94899.47;;;1.45;100.00
62634;BME280;48704;50.534;6.442;2022-11-20T06:26:28;94904.72;;;1.40;100.00
62634;BME280;48704;50.534;6.442;2022-11-20T06:28:54;94905.94;;;1.39;100.00
62634;BME280;48704;50.534;6.442;2022-11-20T06:31:22;94908.00;;;1.34;100.00
62634;BME280;48704;50.534;6.442;2022-11-20T06:33:49;94915.56;;;1.30;100.00
62634;BME280;48704;50.534;6.442;2022-11-20T06:36:16;94908.91;;;1.15;100.00
62634;BME280;48704;50.534;6.442;2022-11-20T06:38:44;94910.00;;;1.18;100.00
62634;BME280;48704;50.534;6.442;2022-11-20T06:41:14;94920.88;;;1.09;100.00
62634;BME280;48704;50.534;6.442;2022-11-20T06:43:40;94908.88;;;1.03;100.00
62634;BME280;48704;50.534;6.442;2022-11-20T06:46:06;94914.97;;;0.94;100.00
62634;BME280;48704;50.534;6.442;2022-11-20T06:48:32;94922.09;;;0.91;100.00
62634;BME280;48704;50.534;6.442;2022-11-20T06:50:57;94917.97;;;0.83;100.00
62634;BME280;48704;50.534;6.442;2022-11-20T06:53:23;94928.69;;;0.78;100.00
62634;BME280;48704;50.534;6.442;2022-11-20T06:55:51;94921.44;;;0.71;100.00
62634;BME280;48704;50.534;6.442;2022-11-20T06:58:17;94931.56;;;0.74;100.00
62634;BME280;48704;50.534;6.442;2022-11-20T07:00:43;94931.63;;;0.71;100.00
62634;BME280;48704;50.534;6.442;2022-11-20T07:03:10;94937.56;;;0.69;100.00
62634;BME280;48704;50.534;6.442;2022-11-20T07:05:36;94936.25;;;0.74;100.00
62634;BME280;48704;50.534;6.442;2022-11-20T07:08:02;94937.97;;;0.68;100.00
62634;BME280;48704;50.534;6.442;2022-11-20T07:10:28;94940.25;;;0.85;100.00
62634;BME280;48704;50.534;6.442;2022-11-20T07:12:53;94936.66;;;0.88;100.00
62634;BME280;48704;50.534;6.442;2022-11-20T07:15:20;94934.25;;;0.90;100.00
62634;BME280;48704;50.534;6.442;2022-11-20T07:17:46;94936.06;;;0.81;100.00
62634;BME280;48704;50.534;6.442;2022-11-20T07:20:13;94937.59;;;0.98;100.00
62634;BME280;48704;50.534;6.442;2022-11-20T07:22:38;94942.56;;;1.03;100.00
62634;BME280;48704;50.534;6.442;2022-11-20T07:25:04;94943.25;;;1.07;100.00
62634;BME280;48704;50.534;6.442;2022-11-20T07:27:30;94941.69;;;1.06;100.00
62634;BME280;48704;50.534;6.442;2022-11-20T07:29:55;94936.69;;;1.17;100.00
62634;BME280;48704;50.534;6.442;2022-11-20T07:32:21;94943.91;;;1.11;100.00
62634;BME280;48704;50.534;6.442;2022-11-20T07:34:46;94944.47;;;1.19;100.00
62634;BME280;48704;50.534;6.442;2022-11-20T07:37:12;94940.44;;;1.23;100.00
62634;BME280;48704;50.534;6.442;2022-11-20T07:39:37;94935.63;;;1.27;100.00
62634;BME280;48704;50.534;6.442;2022-11-20T07:42:02;94931.72;;;1.12;100.00
62634;BME280;48704;50.534;6.442;2022-11-20T07:44:28;94930.16;;;1.27;100.00
62634;BME280;48704;50.534;6.442;2022-11-20T07:46:53;94931.53;;;1.19;100.00
62634;BME280;48704;50.534;6.442;2022-11-20T07:49:18;94934.28;;;1.19;100.00
62634;BME280;48704;50.534;6.442;2022-11-20T07:51:44;94931.69;;;1.28;100.00
62634;BME280;48704;50.534;6.442;2022-11-20T07:54:09;94931.69;;;1.28;100.00
62634;BME280;48704;50.534;6.442;2022-11-20T07:56:34;94935.72;;;1.24;100.00
62634;BME280;48704;50.534;6.442;2022-11-20T07:59:00;94938.53;;;1.37;100.00
62634;BME280;48704;50.534;6.442;2022-11-20T08:01:25;94936.84;;;1.26;100.00
62634;BME280;48704;50.534;6.442;2022-11-20T08:03:50;94921.47;;;1.29;100.00
62634;BME280;48704;50.534;6.442;2022-11-20T08:06:16;94932.78;;;1.31;100.00
62634;BME280;48704;50.534;6.442;2022-11-20T08:08:41;94935.25;;;1.42;100.00
62634;BME280;48704;50.534;6.442;2022-11-20T08:11:06;94943.06;;;1.43;100.00
62634;BME280;48704;50.534;6.442;2022-11-20T08:13:50;94928.91;;;1.45;100.00
62634;BME280;48704;50.534;6.442;2022-11-20T08:16:34;94932.19;;;1.40;100.00
62634;BME280;48704;50.534;6.442;2022-11-20T08:19:00;94928.91;;;1.45;100.00
62634;BME280;48704;50.534;6.442;2022-11-20T08:21:25;94933.53;;;1.48;100.00
62634;BME280;48704;50.534;6.442;2022-11-20T08:23:51;94937.06;;;1.61;100.00
62634;BME280;48704;50.534;6.442;2022-11-20T08:26:16;94940.09;;;1.79;100.00
62634;BME280;48704;50.534;6.442;2022-11-20T08:28:41;94948.44;;;1.88;100.00
62634;BME280;48704;50.534;6.442;2022-11-20T08:31:07;94937.22;;;1.83;100.00
62634;BME280;48704;50.534;6.442;2022-11-20T08:33:32;94940.84;;;1.92;100.00
62634;BME280;48704;50.534;6.442;2022-11-20T08:36:04;94936.38;;;2.11;100.00
62634;BME280;48704;50.534;6.442;2022-11-20T08:38:30;94924.38;;;1.92;100.00
62634;BME280;48704;50.534;6.442;2022-11-20T08:40:57;94931.88;;;2.05;100.00
62634;BME280;48704;50.534;6.442;2022-11-20T08:43:41;94932.50;;;1.83;100.00
62634;BME280;48704;50.534;6.442;2022-11-20T08:46:07;94930.75;;;1.89;100.00
62634;BME280;48704;50.534;6.442;2022-11-20T08:48:32;94927.34;;;1.85;100.00
62634;BME280;48704;50.534;6.442;2022-11-20T08:50:58;94930.13;;;2.36;100.00
62634;BME280;48704;50.534;6.442;2022-11-20T08:53:24;94929.78;;;2.09;100.00
62634;BME280;48704;50.534;6.442;2022-11-20T08:55:49;94934.06;;;2.35;100.00
62634;BME280;48704;50.534;6.442;2022-11-20T08:58:15;94920.00;;;2.58;100.00
62634;BME280;48704;50.534;6.442;2022-11-20T09:00:40;94923.47;;;2.72;100.00
62634;BME280;48704;50.534;6.442;2022-11-20T09:03:05;94933.81;;;2.67;100.00
62634;BME280;48704;50.534;6.442;2022-11-20T09:05:31;94932.72;;;2.65;100.00
62634;BME280;48704;50.534;6.442;2022-11-20T09:07:57;94930.06;;;2.74;100.00
62634;BME280;48704;50.534;6.442;2022-11-20T09:10:22;94932.06;;;2.74;100.00
62634;BME280;48704;50.534;6.442;2022-11-20T09:12:51;94925.56;;;2.67;100.00
62634;BME280;48704;50.534;6.442;2022-11-20T09:15:17;94934.81;;;2.74;100.00
62634;BME280;48704;50.534;6.442;2022-11-20T09:18:00;94923.47;;;2.72;100.00
62634;BME280;48704;50.534;6.442;2022-11-20T09:20:27;94934.47;;;2.72;100.00
62634;BME280;48704;50.534;6.442;2022-11-20T09:22:53;94930.28;;;2.80;100.00
62634;BME280;48704;50.534;6.442;2022-11-20T09:25:19;94922.91;;;2.89;100.00
62634;BME280;48704;50.534;6.442;2022-11-20T09:27:44;94919.44;;;2.98;100.00
62634;BME280;48704;50.534;6.442;2022-11-20T09:30:15;94919.53;;;3.07;100.00
62634;BME280;48704;50.534;6.442;2022-11-20T09:32:41;94918.88;;;3.38;100.00
62634;BME280;48704;50.534;6.442;2022-11-20T09:35:07;94912.06;;;3.73;100.00
62634;BME280;48704;50.534;6.442;2022-11-20T09:37:32;94913.56;;;4.18;100.00
62634;BME280;48704;50.534;6.442;2022-11-20T09:39:58;94911.94;;;3.98;100.00
62634;BME280;48704;50.534;6.442;2022-11-20T09:42:34;94907.22;;;3.77;100.00
62634;BME280;48704;50.534;6.442;2022-11-20T09:45:23;94902.25;;;3.94;100.00
62634;BME280;48704;50.534;6.442;2022-11-20T09:48:13;94906.31;;;3.80;100.00
62634;BME280;48704;50.534;6.442;2022-11-20T09:50:52;94901.69;;;3.77;100.00
62634;BME280;48704;50.534;6.442;2022-11-20T09:53:34;94902.72;;;3.92;100.00
62634;BME280;48704;50.534;6.442;2022-11-20T09:56:01;94903.44;;;4.15;100.00
62634;BME280;48704;50.534;6.442;2022-11-20T09:58:42;94906.22;;;4.24;100.00
62634;BME280;48704;50.534;6.442;2022-11-20T10:01:18;94910.03;;;3.86;100.00
62634;BME280;48704;50.534;6.442;2022-11-20T10:03:56;94907.97;;;3.99;100.00
62634;BME280;48704;50.534;6.442;2022-11-20T10:06:44;94912.00;;;4.08;100.00
62634;BME280;48704;50.534;6.442;2022-11-20T10:17:12;94906.22;;;4.24;100.00
62634;BME280;48704;50.534;6.442;2022-11-20T10:19:51;94910.47;;;4.07;100.00
62634;BME280;48704;50.534;6.442;2022-11-20T10:24:57;94903.63;;;3.89;100.00
62634;BME280;48704;50.534;6.442;2022-11-20T10:32:37;94888.88;;;3.83;100.00
62634;BME280;48704;50.534;6.442;2022-11-20T10:35:16;94887.97;;;3.86;100.00
62634;BME280;48704;50.534;6.442;2022-11-20T10:37:45;94881.69;;;3.86;100.00
62634;BME280;48704;50.534;6.442;2022-11-20T10:40:31;94875.53;;;3.82;100.00
62634;BME280;48704;50.534;6.442;2022-11-20T10:43:02;94876.41;;;4.00;100.00
62634;BME280;48704;50.534;6.442;2022-11-20T10:50:35;94875.19;;;4.01;100.00
62634;BME280;48704;50.534;6.442;2022-11-20T10:53:11;94875.38;;;4.07;100.00
62634;BME280;48704;50.534;6.442;2022-11-20T10:55:54;94876.69;;;3.93;100.00
62634;BME280;48704;50.534;6.442;2022-11-20T10:58:47;94865.66;;;3.93;100.00
62634;BME280;48704;50.534;6.442;2022-11-20T11:01:20;94875.84;;;4.06;100.00
62634;BME280;48704;50.534;6.442;2022-11-20T11:03:52;94866.69;;;4.18;100.00
62634;BME280;48704;50.534;6.442;2022-11-20T11:06:28;94860.22;;;4.12;100.00
62634;BME280;48704;50.534;6.442;2022-11-20T11:08:57;94851.97;;;4.21;100.00
62634;BME280;48704;50.534;6.442;2022-11-20T11:11:27;94849.00;;;4.37;100.00
62634;BME280;48704;50.534;6.442;2022-11-20T11:14:13;94848.06;;;4.40;100.00
62634;BME280;48704;50.534;6.442;2022-11-20T11:16:55;94843.03;;;4.48;100.00
62634;BME280;48704;50.534;6.442;2022-11-20T11:19:21;94837.69;;;4.62;100.00
62634;BME280;48704;50.534;6.442;2022-11-20T11:22:10;94834.34;;;4.77;100.00
62634;BME280;48704;50.534;6.442;2022-11-20T11:24:51;94824.84;;;4.96;100.00
62634;BME280;48704;50.534;6.442;2022-11-20T11:27:17;94838.03;;;4.92;100.00
62634;BME280;48704;50.534;6.442;2022-11-20T11:29:42;94811.22;;;5.11;100.00
62634;BME280;48704;50.534;6.442;2022-11-20T11:34:41;94813.00;;;6.11;100.00
62634;BME280;48704;50.534;6.442;2022-11-20T11:37:33;94796.38;;;6.11;100.00
62634;BME280;48704;50.534;6.442;2022-11-20T11:40:00;94814.59;;;5.93;100.00
62634;BME280;48704;50.534;6.442;2022-11-20T11:42:27;94809.47;;;5.50;100.00
62634;BME280;48704;50.534;6.442;2022-11-20T11:44:56;94805.78;;;5.44;100.00
62634;BME280;48704;50.534;6.442;2022-11-20T11:47:52;94793.69;;;5.32;100.00
62634;BME280;48704;50.534;6.442;2022-11-20T11:50:21;94783.75;;;5.07;100.00
62634;BME280;48704;50.534;6.442;2022-11-20T11:53:09;94785.88;;;4.94;100.00
62634;BME280;48704;50.534;6.442;2022-11-20T11:55:36;94791.41;;;4.94;100.00
62634;BME280;48704;50.534;6.442;2022-11-20T12:01:05;94786.03;;;4.90;100.00
62634;BME280;48704;50.534;6.442;2022-11-20T12:03:36;94773.91;;;4.88;100.00
62634;BME280;48704;50.534;6.442;2022-11-20T12:06:10;94777.00;;;4.99;100.00
62634;BME280;48704;50.534;6.442;2022-11-20T12:08:51;94779.28;;;5.00;100.00
62634;BME280;48704;50.534;6.442;2022-11-20T12:11:24;94774.53;;;5.01;100.00
62634;BME280;48704;50.534;6.442;2022-11-20T12:14:14;94773.63;;;5.04;100.00
62634;BME280;48704;50.534;6.442;2022-11-20T12:16:41;94772.09;;;5.12;100.00
62634;BME280;48704;50.534;6.442;2022-11-20T12:19:12;94772.69;;;5.16;100.00
62634;BME280;48704;50.534;6.442;2022-11-20T12:21:46;94770.09;;;5.13;100.00
62634;BME280;48704;50.534;6.442;2022-11-20T12:27:16;94763.19;;;5.17;100.00
62634;BME280;48704;50.534;6.442;2022-11-20T12:32:31;94744.44;;;5.21;100.00
62634;BME280;48704;50.534;6.442;2022-11-20T12:40:41;94740.34;;;5.08;100.00
62634;BME280;48704;50.534;6.442;2022-11-20T12:43:23;94734.03;;;5.07;100.00
62634;BME280;48704;50.534;6.442;2022-11-20T12:46:35;94742.16;;;5.11;100.00
62634;BME280;48704;50.534;6.442;2022-11-20T12:51:51;94723.78;;;4.98;100.00
62634;BME280;48704;50.534;6.442;2022-11-20T13:03:04;94715.03;;;5.09;100.00
62634;BME280;48704;50.534;6.442;2022-11-20T13:08:25;94702.75;;;4.92;100.00
62634;BME280;48704;50.534;6.442;2022-11-20T13:17:04;94691.16;;;4.79;100.00
62634;BME280;48704;50.534;6.442;2022-11-20T13:19:34;94690.53;;;4.75;100.00
62634;BME280;48704;50.534;6.442;2022-11-20T13:21:59;94680.09;;;4.79;100.00
62634;BME280;48704;50.534;6.442;2022-11-20T13:24:30;94684.09;;;4.78;100.00
62634;BME280;48704;50.534;6.442;2022-11-20T13:27:18;94677.19;;;4.73;100.00
62634;BME280;48704;50.534;6.442;2022-11-20T13:29:46;94679.03;;;4.67;100.00
62634;BME280;48704;50.534;6.442;2022-11-20T13:32:18;94674.59;;;4.69;100.00
62634;BME280;48704;50.534;6.442;2022-11-20T13:34:56;94673.38;;;4.70;100.00
62634;BME280;48704;50.534;6.442;2022-11-20T13:37:33;94668.47;;;4.65;100.00
62634;BME280;48704;50.534;6.442;2022-11-20T13:40:12;94667.38;;;4.63;100.00
62634;BME280;48704;50.534;6.442;2022-11-20T13:42:46;94669.38;;;4.53;100.00
62634;BME280;48704;50.534;6.442;2022-11-20T13:45:28;94656.19;;;4.57;100.00
62634;BME280;48704;50.534;6.442;2022-11-20T13:47:56;94656.66;;;4.65;100.00
62634;BME280;48704;50.534;6.442;2022-11-20T13:53:14;94657.16;;;4.45;100.00
62634;BME280;48704;50.534;6.442;2022-11-20T14:01:33;94651.59;;;4.09;100.00
62634;BME280;48704;50.534;6.442;2022-11-20T14:04:05;94641.19;;;4.13;100.00
62634;BME280;48704;50.534;6.442;2022-11-20T14:06:38;94637.69;;;4.03;100.00
62634;BME280;48704;50.534;6.442;2022-11-20T14:09:04;94641.97;;;3.95;100.00
62634;BME280;48704;50.534;6.442;2022-11-20T14:11:30;94642.38;;;3.84;100.00
62634;BME280;48704;50.534;6.442;2022-11-20T14:16:22;94639.06;;;3.98;100.00
62634;BME280;48704;50.534;6.442;2022-11-20T14:18:48;94628.94;;;3.86;100.00
62634;BME280;48704;50.534;6.442;2022-11-20T14:21:28;94626.16;;;3.86;100.00
62634;BME280;48704;50.534;6.442;2022-11-20T14:24:05;94615.47;;;3.88;100.00
62634;BME280;48704;50.534;6.442;2022-11-20T14:26:31;94618.19;;;3.79;100.00